Airfield :
LOGIN :

Register | Disclaimer

   EN    FR    IT 

 










Legend :    VFR   Marginal VFR   IFR   Intensive IFR   Very Intensive IFR
Visi :
Ceiling :
>= 8 km
>= 3000ft
5 to 8 km
1000 to 3000 ft
1500m to 5 km
500 to 1000 ft
800 to 1500m
200 to 500 ft
< 800m
< 200 ft
Symbols :   Thunderstorms  Fog  Heavy snow  Heavy precipitations  Wind > 20 kt
SIGMETs :     Misc.  Thunderstorms  Icing  Turbulence  Mountain Waves  Volcanic Ashes






- Airport Elevation : 636 ft


LPBJ - Beja Air Base

CURRENT METAR :
  • 070900Z 31005KT 260V030 7000 1500NW PRFG SCT001 BKN005 13/11 Q1020

EXPIRED METARs :
  • 070833Z 31005KT 270V340 5000 1800W PRFG FEW001 BKN002 13/12 Q1020
  • 070818Z 33005KT 5000 1100NW PRFG SCT001 12/11 Q1020
  • 070800Z 31005KT 4000 1000NW BCFG SCT002 12/11 Q1020
  • 070700Z VRB02KT 4000 BCFG FEW003 10/10 Q1020

TAF AMD TAF LPBJ
Valid from the 07 at 09:00 until the 08 at 06:00 UTC


070847Z 0709/0806 33005KT 2000 PRFG BKN002
BECMG 0709/0711 CAVOK
PROB40 0804/0806 VRB02KT 0200 FG BKN002



MET'MAP, your aeronautical weather chart ! - Copyright ORBIFLY December 2007 - Disclaimer

ORBIFLY MET'MAP TEAM :

Programming & Development : Alexandra Zaïnal
Concept & original design : Baudouin d'Aumeries
Assistance for programming : Marc-Olivier Méhu
Technical & hardware support : Manuel Goepfert

Contact : metmap@orbifly.com




SOURCES & CREDITS :

   NOAA